Time;durP1;ratioP1;P1;durP2;ratioP2;P2;SDS_P1;SDS_P2;PMS_P1;PMS_P2;Temp;Humidity;BMP_temperature;BMP_pressure;BME280_temperature;BME280_humidity;BME280_pressure;Samples;Min_cycle;Max_cycle;Signal;HPM_P1;HPM_P2
2022/05/09 00:28:09;;;;;;;15.20;13.32;;;11.80;99.90;;;;;;6088198;23;20293;-88
2022/05/09 00:34:10;;;;;;;16.40;13.52;;;11.80;99.90;;;;;;5979770;24;20240;-89
2022/05/09 01:21:35;;;;;;;;;;;;;;;;;;;;;
2022/05/09 02:57:25;;;;;;;15.02;13.48;;;11.30;99.90;;;;;;6294962;22;20560;-88
2022/05/09 03:14:12;;;;;;;;;;;;;;;;;;;;;
2022/05/09 08:52:33;;;;;;;15.50;12.93;;;20.50;55.80;;;;;;6156275;23;20183;-92
2022/05/09 08:58:40;;;;;;;10.80;9.80;;;21.70;48.50;;;;;;6155412;23;20507;-90
2022/05/09 09:01:15;;;;;;;10.43;9.52;;;22.90;36.80;;;;;;6155191;23;20691;-92
2022/05/09 09:03:59;;;;;;;11.38;9.55;;;22.40;37.80;;;;;;6155560;23;20177;-90
2022/05/09 09:06:57;;;;;;;10.63;9.70;;;23.80;35.20;;;;;;6155416;23;20232;-89
2022/05/09 09:09:56;;;;;;;10.57;9.57;;;25.50;27.20;;;;;;6183987;23;20223;-86
2022/05/09 09:12:52;;;;;;;10.27;9.07;;;25.70;25.30;;;;;;6247918;23;20167;-89
2022/05/09 09:15:38;;;;;;;8.45;7.75;;;27.10;21.60;;;;;;6247718;23;20167;-87
2022/05/09 09:18:28;;;;;;;8.93;7.95;;;26.80;22.30;;;;;;6248371;23;20245;-84
2022/05/09 09:21:03;;;;;;;9.70;8.70;;;25.40;26.40;;;;;;6248078;23;20659;-85
2022/05/09 09:23:55;;;;;;;10.15;8.63;;;25.00;25.20;;;;;;6249211;23;20157;-87
2022/05/09 09:26:29;;;;;;;7.78;7.18;;;24.80;27.00;;;;;;6248117;23;20211;-85
2022/05/09 09:29:45;;;;;;;7.80;7.18;;;25.80;24.90;;;;;;6244569;23;20166;-88
2022/05/09 09:32:15;;;;;;;8.13;7.35;;;25.20;24.50;;;;;;6248005;23;20244;-86
2022/05/09 09:34:49;;;;;;;8.00;7.10;;;25.50;24.80;;;;;;6248866;23;20161;-86
2022/05/09 09:37:31;;;;;;;8.35;7.65;;;25.80;23.30;;;;;;6250261;23;20163;-87
2022/05/09 09:40:44;;;;;;;8.80;7.78;;;25.30;24.60;;;;;;6252075;23;20227;-86
2022/05/09 09:43:11;;;;;;;8.15;7.32;;;24.80;26.80;;;;;;6223219;23;20236;-88
2022/05/09 09:45:44;;;;;;;7.32;6.75;;;25.60;24.80;;;;;;6227057;23;20164;-83
2022/05/09 09:48:14;;;;;;;7.22;6.60;;;25.20;24.50;;;;;;6221322;23;20200;-83
2022/05/09 09:51:26;;;;;;;7.85;6.93;;;26.90;20.20;;;;;;6222994;23;20162;-90
2022/05/09 09:54:02;;;;;;;6.75;6.15;;;28.00;19.30;;;;;;6230916;23;20213;-89
2022/05/09 09:56:45;;;;;;;6.38;5.80;;;26.50;21.40;;;;;;6237723;23;20172;-84
2022/05/09 09:59:23;;;;;;;6.88;6.22;;;28.60;18.70;;;;;;6221775;23;20169;-84
2022/05/09 10:02:17;;;;;;;10.38;6.20;;;28.80;18.20;;;;;;6216890;23;20208;-87
2022/05/09 10:04:45;;;;;;;7.65;6.90;;;29.10;16.90;;;;;;6220682;23;20169;-86
2022/05/09 10:07:16;;;;;;;7.07;6.10;;;30.00;16.60;;;;;;6218833;23;20216;-85
2022/05/09 10:10:14;;;;;;;5.43;5.03;;;28.70;16.00;;;;;;6220108;23;20166;-85
2022/05/09 10:12:44;;;;;;;7.57;6.80;;;28.50;17.40;;;;;;6154939;23;20196;-86
2022/05/09 10:15:27;;;;;;;7.85;5.50;;;28.00;15.60;;;;;;6220658;23;20196;-86
2022/05/09 10:18:22;;;;;;;7.88;5.80;;;26.80;18.70;;;;;;6216802;23;20158;-87
2022/05/09 10:20:52;;;;;;;7.25;6.55;;;26.10;19.70;;;;;;6218864;23;20440;-86
2022/05/09 10:26:35;;;;;;;6.95;6.40;;;27.30;18.50;;;;;;6219420;23;20214;-83
2022/05/09 10:29:18;;;;;;;6.63;5.90;;;28.00;16.70;;;;;;6219025;23;20232;-84
2022/05/09 10:31:54;;;;;;;9.20;6.13;;;27.70;17.30;;;;;;6219561;23;20168;-85
2022/05/09 10:34:41;;;;;;;8.27;5.47;;;28.60;15.90;;;;;;6219300;23;20628;-83
2022/05/09 10:37:18;;;;;;;8.27;6.82;;;28.90;16.10;;;;;;6215201;23;20228;-85
2022/05/09 10:40:08;;;;;;;6.32;5.80;;;27.70;17.10;;;;;;6212183;23;20168;-84
2022/05/09 10:43:02;;;;;;;7.03;5.72;;;27.60;17.10;;;;;;6213608;23;20197;-86
2022/05/09 10:45:41;;;;;;;6.85;5.63;;;27.70;15.50;;;;;;6214087;23;20169;-86
2022/05/09 10:48:14;;;;;;;7.97;6.10;;;28.00;17.20;;;;;;6213399;23;20176;-86
2022/05/09 10:50:50;;;;;;;6.75;6.15;;;28.80;16.00;;;;;;6213425;23;20617;-84
2022/05/09 10:53:32;;;;;;;6.35;5.85;;;28.10;17.40;;;;;;6214029;23;20161;-87
2022/05/09 10:56:08;;;;;;;6.18;5.63;;;27.30;15.30;;;;;;6217295;23;20164;-85
2022/05/09 10:59:00;;;;;;;7.13;5.60;;;26.20;19.30;;;;;;6212158;23;20172;-85
2022/05/09 11:01:39;;;;;;;6.65;6.07;;;26.90;18.40;;;;;;6216695;23;20186;-84
2022/05/09 11:04:16;;;;;;;7.05;6.50;;;25.90;19.30;;;;;;6219913;23;20166;-84
2022/05/09 11:06:53;;;;;;;7.53;6.47;;;24.30;24.40;;;;;;6222794;23;20176;-87
2022/05/09 11:09:48;;;;;;;7.50;6.57;;;23.10;26.30;;;;;;6217020;23;20157;-89
2022/05/09 15:30:35;;;;;;;4.97;4.43;;;21.30;25.70;;;;;;6255233;22;20184;-85
2022/05/09 15:36:51;;;;;;;4.63;4.22;;;21.10;26.60;;;;;;6295044;22;20175;-84
2022/05/09 16:24:41;;;;;;;10.25;4.80;;;20.90;26.70;;;;;;6260208;23;20184;-86
2022/05/09 16:41:29;;;;;;;;;;;;;;;;;;;;;
